Time;durP1;ratioP1;P1;durP2;ratioP2;P2;SDS_P1;SDS_P2;PMS_P1;PMS_P2;Temp;Humidity;BMP_temperature;BMP_pressure;BME280_temperature;BME280_humidity;BME280_pressure;Samples;Min_cycle;Max_cycle;Signal;HPM_P1;HPM_P2
2022/02/01 00:02:08;;;;;;;33.35;17.45;;;;;;;-3.66;78.43;99416.81;5073698;28;20040;-63
2022/02/01 00:04:42;;;;;;;24.90;13.45;;;;;;;-3.57;78.42;99421.38;5055410;28;20043;-64
2022/02/01 00:07:20;;;;;;;27.30;13.10;;;;;;;-3.51;78.74;99425.31;5055124;28;20409;-63
2022/02/01 00:10:14;;;;;;;26.27;13.20;;;;;;;-3.60;79.20;99407.75;5073541;28;20062;-63
2022/02/01 00:36:41;;;;;;;29.17;15.43;;;;;;;-3.83;77.88;99393.72;5072508;28;20141;-63
2022/02/01 00:39:10;;;;;;;21.70;13.25;;;;;;;-3.73;78.97;99412.97;5072913;28;20043;-63
2022/02/01 00:41:42;;;;;;;27.27;14.38;;;;;;;-4.09;78.07;99367.72;5072839;28;20032;-62
2022/02/01 00:44:08;;;;;;;25.90;15.07;;;;;;;-3.91;78.20;99403.81;5054686;28;20392;-63
2022/02/01 00:46:34;;;;;;;26.58;11.68;;;;;;;-3.79;78.56;99413.38;5072400;28;20132;-63
2022/02/01 00:49:00;;;;;;;26.60;13.10;;;;;;;-3.69;78.16;99414.44;5072146;28;20127;-62
2022/02/01 00:51:26;;;;;;;25.23;14.27;;;;;;;-3.73;77.78;99407.78;5072152;28;20617;-63
2022/02/01 00:53:51;;;;;;;20.20;12.03;;;;;;;-3.82;77.72;99385.81;5072190;28;20032;-62
2022/02/01 00:56:18;;;;;;;26.63;13.97;;;;;;;-3.71;78.55;99400.69;5054450;28;20510;-64
2022/02/01 00:58:45;;;;;;;25.58;14.30;;;;;;;-3.72;78.25;99401.63;5054173;28;20347;-62
2022/02/01 01:01:11;;;;;;;26.85;14.80;;;;;;;-3.74;78.43;99393.09;5072230;28;20047;-64
2022/02/01 01:03:37;;;;;;;25.17;15.60;;;;;;;-3.68;78.32;99402.25;5072200;28;20040;-63
2022/02/01 01:06:04;;;;;;;24.08;13.43;;;;;;;-3.76;78.31;99398.41;5071891;28;20044;-63
2022/02/01 01:08:32;;;;;;;29.50;13.15;;;;;;;-3.77;78.80;99398.50;5071781;28;20130;-62
2022/02/01 01:11:00;;;;;;;21.17;11.85;;;;;;;-3.71;78.25;99397.25;5072057;28;20098;-63
2022/02/01 01:43:38;;;;;;;28.63;15.40;;;;;;;-3.86;78.82;99384.34;5071518;28;20587;-63
2022/02/01 01:54:28;;;;;;;24.80;14.02;;;;;;;-3.79;78.18;99379.56;5071923;28;20127;-62
2022/02/01 01:56:56;;;;;;;25.48;14.45;;;;;;;-4.01;78.19;99337.78;5071656;28;20075;-63
2022/02/01 01:59:23;;;;;;;25.48;14.85;;;;;;;-3.74;78.40;99390.50;5071500;28;20040;-62
2022/02/01 02:01:48;;;;;;;28.92;14.25;;;;;;;-3.79;78.91;99389.97;5071576;28;20051;-61
2022/02/01 02:04:14;;;;;;;26.53;14.93;;;;;;;-3.97;78.19;99370.44;5072052;28;20044;-62
2022/02/01 02:06:40;;;;;;;26.80;15.47;;;;;;;-3.88;79.48;99390.59;5073182;28;20078;-61
2022/02/01 02:09:09;;;;;;;28.57;15.30;;;;;;;-3.79;79.24;99392.56;5073012;28;20561;-63
2022/02/01 02:14:19;;;;;;;20.67;13.48;;;;;;;-3.91;78.29;99380.41;5076267;28;20132;-62
2022/02/01 02:16:59;;;;;;;28.60;16.00;;;;;;;-3.84;78.80;99399.84;5075126;28;20039;-62
2022/02/01 02:19:29;;;;;;;25.10;14.35;;;;;;;-3.93;78.60;99379.69;5076118;28;20035;-69
2022/02/01 02:21:58;;;;;;;26.98;14.10;;;;;;;-3.91;78.52;99375.22;5076667;28;20036;-67
2022/02/01 02:24:26;;;;;;;28.98;16.02;;;;;;;-3.87;78.43;99395.69;5075895;28;20040;-67
2022/02/01 02:26:52;;;;;;;30.60;16.65;;;;;;;-3.89;78.11;99394.13;5075131;28;20039;-63
2022/02/01 02:29:18;;;;;;;27.83;14.48;;;;;;;-3.87;78.27;99387.91;5075036;28;20412;-64
2022/02/01 02:31:45;;;;;;;24.83;12.60;;;;;;;-3.84;78.57;99392.06;5075761;28;20040;-61
2022/02/01 02:34:15;;;;;;;24.17;13.43;;;;;;;-3.97;78.63;99384.25;5076054;28;20465;-63
2022/02/01 02:36:45;;;;;;;24.35;13.77;;;;;;;-3.97;78.35;99383.44;5075427;28;20039;-63
2022/02/01 02:39:25;;;;;;;27.48;15.35;;;;;;;-3.85;78.48;99406.81;5075328;28;20407;-63
2022/02/01 02:47:04;;;;;;;29.88;15.80;;;;;;;-3.80;78.78;99393.50;5075293;28;20039;-63
2022/02/01 02:49:30;;;;;;;29.65;16.67;;;;;;;-3.76;77.59;99394.94;5075111;28;20060;-64
2022/02/01 02:51:55;;;;;;;29.00;14.37;;;;;;;-3.77;77.62;99395.88;5074517;28;20550;-62
2022/02/01 02:54:23;;;;;;;30.13;15.27;;;;;;;-4.56;78.03;99266.16;5074636;28;20024;-63
2022/02/01 02:56:52;;;;;;;27.13;13.30;;;;;;;-3.78;77.26;99389.84;5074677;28;20039;-63
2022/02/01 02:59:20;;;;;;;28.45;13.40;;;;;;;-3.83;77.11;99380.72;5074551;28;20403;-64
2022/02/01 03:01:47;;;;;;;23.52;14.07;;;;;;;-3.67;76.97;99396.94;5074306;28;20072;-63
2022/02/01 03:04:17;;;;;;;32.95;16.10;;;;;;;-3.69;77.11;99388.41;5056333;28;20042;-62
2022/02/01 03:06:44;;;;;;;26.92;16.08;;;;;;;-3.68;77.58;99397.88;5056080;28;20527;-63
2022/02/01 03:09:14;;;;;;;26.85;15.52;;;;;;;-3.78;77.53;99381.22;5074400;28;20036;-63
2022/02/01 03:11:40;;;;;;;29.52;15.38;;;;;;;-3.82;77.46;99379.78;5074356;28;20393;-64
2022/02/01 03:14:20;;;;;;;26.60;15.10;;;;;;;-3.79;78.48;99389.97;5074477;28;20079;-65
2022/02/01 03:16:54;;;;;;;28.60;15.60;;;;;;;-3.79;78.29;99390.78;5074215;28;20392;-63
2022/02/01 03:22:04;;;;;;;26.10;15.15;;;;;;;-3.81;77.79;99381.44;5074307;28;20032;-62
2022/02/01 03:24:29;;;;;;;26.03;12.77;;;;;;;-3.99;77.96;99351.50;5056340;28;20055;-63
2022/02/01 03:26:55;;;;;;;30.40;12.97;;;;;;;-3.72;78.12;99396.44;5056345;28;20373;-61
2022/02/01 03:29:21;;;;;;;28.57;14.73;;;;;;;-3.76;77.50;99389.75;5073931;28;20495;-66
2022/02/01 03:31:47;;;;;;;29.50;15.83;;;;;;;-3.71;78.05;99395.50;5073657;28;20049;-66
2022/02/01 03:34:12;;;;;;;31.83;15.83;;;;;;;-3.70;77.96;99394.56;5074223;28;20036;-65
2022/02/01 03:36:38;;;;;;;28.67;17.07;;;;;;;-3.66;78.36;99406.41;5073962;28;20036;-64
2022/02/01 03:39:03;;;;;;;27.67;14.77;;;;;;;-3.64;77.87;99404.53;5073994;28;20036;-64
2022/02/01 03:41:29;;;;;;;25.67;13.63;;;;;;;-3.77;77.74;99375.06;5073960;28;20434;-63
2022/02/01 03:43:55;;;;;;;27.30;14.90;;;;;;;-3.67;78.23;99402.16;5055673;28;20032;-63
2022/02/01 03:46:21;;;;;;;30.20;17.57;;;;;;;-3.71;78.15;99392.06;5055714;28;20039;-63
2022/02/01 03:48:47;;;;;;;28.60;15.77;;;;;;;-3.70;77.96;99385.91;5073538;28;20035;-62
2022/02/01 03:51:13;;;;;;;25.25;15.00;;;;;;;-3.78;78.46;99370.81;5073858;28;20032;-64
2022/02/01 03:53:38;;;;;;;26.10;14.60;;;;;;;-4.09;78.25;99320.09;5074246;28;20170;-64
2022/02/01 03:56:05;;;;;;;26.53;14.43;;;;;;;-3.70;78.71;99384.16;5055790;28;20074;-64
2022/02/01 03:58:30;;;;;;;26.27;13.52;;;;;;;-3.72;77.72;99380.81;5073631;28;20040;-63
2022/02/01 04:00:56;;;;;;;32.73;14.83;;;;;;;-3.64;78.45;99383.72;5073859;28;20127;-65
2022/02/01 04:03:27;;;;;;;30.20;15.93;;;;;;;-3.59;78.63;99376.41;5056387;28;20037;-65
2022/02/01 04:05:55;;;;;;;25.65;16.25;;;;;;;-3.68;78.65;99374.47;5075273;28;20040;-64
2022/02/01 04:08:23;;;;;;;29.17;14.40;;;;;;;-3.93;78.49;99327.66;5073668;28;20513;-64
2022/02/01 04:10:50;;;;;;;31.25;15.77;;;;;;;-3.66;78.37;99369.97;5073428;28;20063;-63
2022/02/01 04:13:17;;;;;;;29.83;16.25;;;;;;;-3.72;78.50;99374.78;5073298;28;20045;-64
2022/02/01 04:15:43;;;;;;;28.55;15.43;;;;;;;-3.71;79.74;99382.47;5073283;28;20025;-64
2022/02/01 04:18:09;;;;;;;31.40;17.30;;;;;;;-3.73;79.13;99394.78;5073322;28;20044;-62
2022/02/01 04:20:35;;;;;;;26.92;15.80;;;;;;;-3.85;79.08;99366.97;5073797;28;20032;-66
2022/02/01 04:23:01;;;;;;;28.35;14.45;;;;;;;-3.77;79.53;99386.31;5038649;28;20127;-68
2022/02/01 04:25:27;;;;;;;29.43;14.63;;;;;;;-3.75;79.70;99386.25;5073139;28;20152;-72
2022/02/01 04:27:53;;;;;;;31.55;14.65;;;;;;;-3.77;79.72;99373.31;5074864;28;20542;-70
2022/02/01 04:30:19;;;;;;;31.90;15.73;;;;;;;-3.75;78.48;99375.84;5056196;28;20048;-64
2022/02/01 04:32:50;;;;;;;30.17;16.45;;;;;;;-3.70;79.09;99384.16;5073134;28;20047;-66
2022/02/01 04:35:18;;;;;;;30.65;15.75;;;;;;;-3.68;79.27;99384.88;5055001;28;20045;-65
2022/02/01 04:37:44;;;;;;;36.00;17.15;;;;;;;-3.98;79.56;99337.56;5055106;28;20131;-64
2022/02/01 04:40:13;;;;;;;28.83;17.10;;;;;;;-3.80;79.92;99377.91;5072696;28;20128;-66
2022/02/01 04:42:40;;;;;;;31.30;16.33;;;;;;;-3.71;79.44;99377.28;5072242;28;20115;-66
2022/02/01 04:45:11;;;;;;;29.33;15.73;;;;;;;-3.74;79.68;99367.09;5072386;28;20049;-65
2022/02/01 04:47:36;;;;;;;31.65;15.93;;;;;;;-3.76;80.01;99356.78;5072742;28;20446;-64
2022/02/01 04:50:13;;;;;;;28.97;15.60;;;;;;;-3.58;79.25;99380.69;5072614;28;20028;-66
2022/02/01 04:52:41;;;;;;;31.85;17.10;;;;;;;-3.55;79.48;99364.00;5072666;28;20035;-64
2022/02/01 04:55:07;;;;;;;33.45;18.73;;;;;;;-3.63;79.58;99354.16;5072182;28;20053;-66
2022/02/01 04:57:33;;;;;;;36.72;18.63;;;;;;;-3.61;79.55;99370.50;5072365;28;20078;-65
2022/02/01 04:59:58;;;;;;;33.57;15.60;;;;;;;-3.60;79.57;99379.13;5072337;28;20036;-64
2022/02/01 05:02:24;;;;;;;37.53;20.87;;;;;;;-3.68;79.84;99366.66;5071990;28;20029;-65
2022/02/01 05:04:49;;;;;;;34.83;17.80;;;;;;;-3.65;80.06;99363.00;5072023;28;20032;-64
2022/02/01 05:07:21;;;;;;;32.03;17.07;;;;;;;-3.62;80.01;99374.03;5072130;28;20067;-65
2022/02/01 05:09:47;;;;;;;29.75;16.75;;;;;;;-3.60;80.36;99366.94;5071902;28;20041;-66
2022/02/01 05:12:13;;;;;;;36.77;19.27;;;;;;;-3.66;79.62;99359.56;5072228;28;20059;-66
2022/02/01 05:14:39;;;;;;;32.55;15.88;;;;;;;-3.59;80.44;99366.00;5072349;28;20028;-67
2022/02/01 05:17:04;;;;;;;36.00;18.90;;;;;;;-3.75;80.00;99339.41;5072064;28;20116;-65
2022/02/01 05:19:45;;;;;;;34.63;16.43;;;;;;;-3.61;79.64;99362.69;5072362;28;20392;-65
2022/02/01 05:22:15;;;;;;;37.55;19.83;;;;;;;-3.50;79.44;99369.72;5073975;28;20040;-65
2022/02/01 05:24:41;;;;;;;35.70;17.90;;;;;;;-3.50;80.34;99375.75;5075340;28;20040;-67
2022/02/01 05:27:10;;;;;;;39.63;19.73;;;;;;;-3.52;79.77;99371.59;5073903;28;20062;-65
2022/02/01 05:29:37;;;;;;;30.05;16.90;;;;;;;-3.56;80.39;99359.75;5072604;28;20049;-64
2022/02/01 05:32:22;;;;;;;36.58;19.45;;;;;;;-3.54;80.61;99363.91;5038195;28;20028;-65
2022/02/01 05:34:49;;;;;;;37.05;20.02;;;;;;;-3.52;80.31;99366.41;5071972;28;20032;-67
2022/02/01 05:37:14;;;;;;;35.92;17.98;;;;;;;-3.68;80.13;99358.84;5054711;28;20115;-66
2022/02/01 05:39:40;;;;;;;34.40;18.13;;;;;;;-3.65;79.87;99365.59;5072572;28;20071;-65
2022/02/01 05:42:06;;;;;;;35.73;15.77;;;;;;;-3.73;80.61;99358.34;5071815;28;20048;-65
2022/02/01 05:44:31;;;;;;;36.87;19.03;;;;;;;-3.70;80.51;99352.94;5070768;28;20036;-66
2022/02/01 05:46:57;;;;;;;35.77;16.67;;;;;;;-3.59;80.82;99357.38;5053503;28;20353;-66
2022/02/01 05:49:22;;;;;;;35.17;20.67;;;;;;;-3.48;80.13;99366.06;5071572;28;20032;-65
2022/02/01 05:51:50;;;;;;;34.10;16.80;;;;;;;-3.74;80.18;99320.25;5071721;28;20068;-67
2022/02/01 05:54:16;;;;;;;29.27;15.05;;;;;;;-3.48;80.01;99362.63;5071601;28;20071;-65
2022/02/01 05:56:42;;;;;;;35.15;19.30;;;;;;;-3.48;80.39;99371.28;5071584;28;20131;-67
2022/02/01 05:59:07;;;;;;;31.47;17.53;;;;;;;-3.48;80.76;99363.47;5071495;28;20086;-65
2022/02/01 06:01:33;;;;;;;35.17;18.20;;;;;;;-3.51;80.90;99373.28;5071443;28;20116;-67
2022/02/01 06:03:58;;;;;;;36.70;19.37;;;;;;;-3.52;81.04;99371.59;5071555;28;20045;-65
2022/02/01 06:06:24;;;;;;;40.93;17.63;;;;;;;-3.60;81.01;99353.94;5071538;28;20036;-65
2022/02/01 06:08:50;;;;;;;40.13;19.13;;;;;;;-3.54;81.25;99376.09;5071289;28;20053;-67
2022/02/01 06:11:15;;;;;;;35.60;18.73;;;;;;;-3.64;81.81;99347.28;5071598;28;20499;-65
2022/02/01 06:13:41;;;;;;;36.47;20.03;;;;;;;-3.53;81.10;99369.94;5071905;28;20581;-69
2022/02/01 06:16:07;;;;;;;37.27;16.67;;;;;;;-3.60;81.18;99373.91;5068877;28;20081;-63
2022/02/01 06:18:33;;;;;;;38.72;19.75;;;;;;;-3.62;81.45;99365.38;5071168;28;20127;-64
2022/02/01 06:21:00;;;;;;;39.70;21.13;;;;;;;-3.75;82.17;99360.22;5071287;28;20090;-64
2022/02/01 06:23:27;;;;;;;44.25;20.67;;;;;;;-3.73;82.57;99357.50;5071167;28;20135;-65
2022/02/01 06:25:55;;;;;;;38.63;21.15;;;;;;;-3.93;81.82;99328.50;5071134;28;20166;-64
2022/02/01 06:28:23;;;;;;;31.13;15.73;;;;;;;-3.68;82.36;99353.66;5071286;28;20033;-64
2022/02/01 06:30:50;;;;;;;35.55;16.35;;;;;;;-3.61;81.32;99373.09;5071040;28;20045;-64
2022/02/01 06:33:16;;;;;;;41.95;20.90;;;;;;;-3.63;82.20;99367.16;5071757;28;20037;-63
2022/02/01 06:35:43;;;;;;;39.70;19.73;;;;;;;-3.66;81.84;99369.97;5053881;28;20036;-63
2022/02/01 06:38:09;;;;;;;39.47;18.38;;;;;;;-3.60;81.75;99374.75;5072031;28;20047;-65
2022/02/01 06:40:36;;;;;;;36.33;19.40;;;;;;;-3.62;82.21;99376.63;5054680;28;20131;-65
2022/02/01 06:43:02;;;;;;;38.30;20.02;;;;;;;-3.64;81.68;99368.09;5054053;28;20472;-64
2022/02/01 06:45:27;;;;;;;39.80;19.77;;;;;;;-3.65;82.14;99369.03;5071830;28;20048;-65
2022/02/01 06:47:54;;;;;;;44.30;19.27;;;;;;;-3.69;82.48;99359.78;5072529;28;20032;-64
2022/02/01 06:50:21;;;;;;;35.28;18.10;;;;;;;-3.63;82.19;99369.75;5072323;28;20042;-64
2022/02/01 06:52:54;;;;;;;41.85;18.63;;;;;;;-3.60;81.84;99372.16;5054083;28;20029;-66
2022/02/01 06:55:31;;;;;;;39.63;20.42;;;;;;;-3.58;81.43;99372.88;5072101;28;20131;-65
2022/02/01 06:58:22;;;;;;;37.22;20.90;;;;;;;-3.59;82.64;99376.41;5075488;28;20118;-66
2022/02/01 07:00:47;;;;;;;53.97;24.70;;;;;;;-3.81;82.53;99334.59;5074978;28;20064;-64
2022/02/01 07:03:13;;;;;;;38.03;20.87;;;;;;;-3.57;82.05;99374.53;5075590;28;20491;-65
2022/02/01 07:05:38;;;;;;;34.67;20.13;;;;;;;-3.48;81.63;99371.28;5074788;28;20033;-65
2022/02/01 07:08:05;;;;;;;40.77;19.10;;;;;;;-3.49;81.60;99360.97;5074834;28;20053;-65
2022/02/01 07:10:31;;;;;;;49.22;20.05;;;;;;;-3.39;81.25;99371.59;5074454;28;20139;-63
2022/02/01 07:12:57;;;;;;;42.67;19.67;;;;;;;-3.32;81.53;99367.59;5074672;28;20115;-63
2022/02/01 07:15:23;;;;;;;38.10;16.37;;;;;;;-3.36;81.11;99376.56;5074507;28;20052;-65
2022/02/01 07:17:53;;;;;;;40.77;20.23;;;;;;;-3.42;81.74;99366.59;5056647;28;20563;-66
2022/02/01 07:20:20;;;;;;;48.95;20.08;;;;;;;-3.48;82.02;99365.25;5077971;28;20540;-63
2022/02/01 07:22:48;;;;;;;40.70;19.45;;;;;;;-3.52;81.90;99362.03;5079098;28;20045;-68
2022/02/01 07:25:31;;;;;;;33.05;18.20;;;;;;;-3.57;81.70;99364.13;5078383;28;20138;-69
2022/02/01 07:28:00;;;;;;;44.25;20.15;;;;;;;-3.62;82.04;99366.22;5045712;28;20089;-68
2022/02/01 07:30:27;;;;;;;37.72;19.17;;;;;;;-3.63;81.65;99359.34;5076548;28;20098;-67
2022/02/01 07:32:54;;;;;;;38.92;18.77;;;;;;;-3.75;82.55;99340.25;5075246;28;20499;-65
2022/02/01 07:35:22;;;;;;;33.63;19.55;;;;;;;-3.52;82.69;99371.59;5074683;28;20028;-71
2022/02/01 07:37:49;;;;;;;38.90;18.60;;;;;;;-3.49;81.90;99374.81;5075434;28;20105;-66
2022/02/01 07:40:15;;;;;;;41.30;18.63;;;;;;;-3.42;82.25;99371.81;5056504;28;20035;-69
2022/02/01 07:42:41;;;;;;;36.80;17.65;;;;;;;-3.41;81.56;99363.06;5074104;28;20041;-65
2022/02/01 07:45:09;;;;;;;38.10;19.67;;;;;;;-3.41;81.29;99368.28;5073620;28;20407;-70
2022/02/01 07:47:35;;;;;;;41.58;19.45;;;;;;;-3.41;81.65;99368.28;5074307;28;20037;-71
2022/02/01 07:50:01;;;;;;;33.70;17.38;;;;;;;-3.46;81.41;99348.59;5073463;28;20040;-68
2022/02/01 07:52:29;;;;;;;36.15;19.35;;;;;;;-3.31;81.33;99356.25;5040325;28;20028;-66
2022/02/01 07:54:54;;;;;;;36.40;16.00;;;;;;;-3.45;81.12;99347.66;5074372;28;20036;-68
2022/02/01 07:57:20;;;;;;;32.73;19.20;;;;;;;-3.41;81.24;99360.47;5074450;28;20036;-73
2022/02/01 07:59:53;;;;;;;39.50;19.08;;;;;;;-3.51;81.05;99355.88;5074434;28;20040;-69
2022/02/01 08:02:22;;;;;;;37.70;18.27;;;;;;;-3.48;81.34;99353.06;5039704;28;20514;-67
2022/02/01 08:04:48;;;;;;;32.03;16.88;;;;;;;-3.39;81.56;99363.78;5074084;28;20036;-64
2022/02/01 08:07:20;;;;;;;36.70;18.30;;;;;;;-3.37;80.30;99365.34;5073054;28;20060;-64
2022/02/01 08:09:48;;;;;;;41.58;20.27;;;;;;;-3.30;80.58;99365.72;5073842;28;20136;-65
2022/02/01 08:17:24;;;;;;;38.97;18.27;;;;;;;-3.41;80.42;99345.66;5055603;28;20051;-62
2022/02/01 08:20:03;;;;;;;33.58;16.17;;;;;;;-3.37;80.43;99348.88;5039317;28;20029;-64
2022/02/01 08:23:01;;;;;;;;;;;;;;;-3.29;80.09;99349.16;5074640;28;20071;-62
2022/02/01 08:25:25;;;;;;;35.17;15.88;;;;;;;-3.40;80.25;99339.53;5073027;28;19923;-65
2022/02/01 08:27:57;;;;;;;33.67;18.35;;;;;;;-3.30;80.13;99342.28;5056095;28;20412;-62
2022/02/01 08:30:23;;;;;;;33.55;17.33;;;;;;;-3.32;80.22;99338.97;5055605;28;20519;-63
2022/02/01 08:32:51;;;;;;;32.28;18.20;;;;;;;-3.37;80.02;99334.09;5073482;28;20052;-66
2022/02/01 08:35:17;;;;;;;31.77;15.43;;;;;;;-3.44;80.63;99338.09;5073317;28;20032;-62
2022/02/01 08:37:43;;;;;;;39.23;19.53;;;;;;;-3.45;80.27;99336.44;5073193;28;20124;-62
2022/02/01 08:40:09;;;;;;;29.37;15.67;;;;;;;-3.63;79.92;99288.28;5072429;28;20131;-62
2022/02/01 08:42:35;;;;;;;33.08;17.13;;;;;;;-3.22;79.74;99342.56;5073035;28;20080;-62
2022/02/01 08:45:03;;;;;;;39.67;22.40;;;;;;;-3.18;79.09;99344.00;5072174;28;20592;-63
2022/02/01 08:47:30;;;;;;;34.30;17.25;;;;;;;-3.20;79.31;99346.72;5072052;28;20036;-62
2022/02/01 08:49:55;;;;;;;35.63;17.10;;;;;;;-3.29;79.52;99338.75;5072502;28;20036;-64
2022/02/01 08:52:29;;;;;;;35.70;18.30;;;;;;;-3.20;80.36;99345.88;5071944;28;20119;-61
2022/02/01 08:54:56;;;;;;;34.63;17.30;;;;;;;-3.13;79.32;99344.53;5072647;28;20033;-62
2022/02/01 08:57:24;;;;;;;36.08;19.02;;;;;;;-3.10;79.39;99343.47;5072959;28;20047;-67
2022/02/01 09:00:17;;;;;;;34.45;15.15;;;;;;;-3.02;79.32;99344.56;5058826;28;20052;-62
2022/02/01 09:02:43;;;;;;;32.78;16.40;;;;;;;-3.05;78.81;99326.56;5054622;28;20051;-63
2022/02/01 09:05:09;;;;;;;32.05;16.60;;;;;;;-2.92;78.76;99355.97;5072081;28;20040;-61
2022/02/01 09:07:35;;;;;;;36.17;18.33;;;;;;;-3.06;78.24;99352.72;5072326;28;20059;-60
2022/02/01 09:10:01;;;;;;;32.30;17.80;;;;;;;-3.10;78.88;99352.13;5054932;28;20083;-63
2022/02/01 09:12:27;;;;;;;33.90;15.73;;;;;;;-3.08;78.85;99350.25;5072831;28;20064;-64
2022/02/01 09:14:52;;;;;;;32.73;17.87;;;;;;;-3.03;78.83;99345.53;5073164;28;20072;-61
2022/02/01 09:17:20;;;;;;;32.83;16.33;;;;;;;-2.96;78.71;99361.53;5072746;28;20483;-61
2022/02/01 09:19:46;;;;;;;30.65;15.80;;;;;;;-2.97;78.45;99355.50;5072057;28;20407;-61
2022/02/01 09:22:14;;;;;;;31.17;16.20;;;;;;;-2.97;78.61;99357.25;5072354;28;20040;-61
2022/02/01 09:24:42;;;;;;;32.97;17.52;;;;;;;-3.01;78.03;99363.63;5072631;28;20047;-64
2022/02/01 09:27:09;;;;;;;30.48;16.75;;;;;;;-3.19;78.27;99321.50;5073204;28;20231;-62
2022/02/01 09:29:35;;;;;;;29.95;16.05;;;;;;;-3.07;78.31;99357.09;5055311;28;20046;-66
2022/02/01 09:32:03;;;;;;;27.83;16.38;;;;;;;-3.06;78.22;99347.53;5072542;28;20043;-65
2022/02/01 09:34:30;;;;;;;28.52;15.02;;;;;;;-3.05;78.97;99350.00;5072875;28;20040;-63
2022/02/01 09:36:57;;;;;;;24.95;14.18;;;;;;;-3.07;78.62;99333.66;5072969;28;20629;-64
2022/02/01 09:39:25;;;;;;;31.13;16.92;;;;;;;-3.03;78.65;99319.47;5072685;28;20495;-62
2022/02/01 09:41:51;;;;;;;28.77;16.13;;;;;;;-2.89;78.13;99319.31;5072425;28;20040;-63
2022/02/01 09:44:18;;;;;;;29.63;15.85;;;;;;;-2.76;77.85;99314.00;5072085;28;20050;-62
2022/02/01 09:46:46;;;;;;;29.23;15.25;;;;;;;-2.65;77.42;99315.81;5053679;28;20067;-61
2022/02/01 09:49:19;;;;;;;30.25;15.45;;;;;;;-2.55;77.35;99314.19;5071930;28;20491;-61
2022/02/01 09:51:57;;;;;;;35.85;14.93;;;;;;;-2.56;77.35;99308.16;5072213;28;20032;-64
2022/02/01 09:54:26;;;;;;;31.30;16.83;;;;;;;-2.45;77.30;99312.56;5071873;28;20078;-64
2022/02/01 09:56:55;;;;;;;27.02;15.75;;;;;;;-2.43;76.75;99310.66;5053373;28;20036;-62
2022/02/01 09:59:31;;;;;;;28.05;14.45;;;;;;;-2.42;76.71;99309.72;5071885;28;20037;-64
2022/02/01 10:02:13;;;;;;;26.73;14.80;;;;;;;-2.48;76.79;99304.97;5054272;28;20044;-64
2022/02/01 10:04:39;;;;;;;33.80;16.70;;;;;;;-2.36;76.59;99311.00;5072300;28;20381;-63
2022/02/01 10:07:14;;;;;;;32.90;17.47;;;;;;;-2.38;76.38;99310.31;5071563;28;20155;-61
2022/02/01 10:09:54;;;;;;;32.22;16.75;;;;;;;-2.32;76.08;99313.28;5071911;28;20040;-65
2022/02/01 10:12:20;;;;;;;29.48;16.10;;;;;;;-2.39;75.88;99312.09;5072491;28;20131;-63
2022/02/01 10:14:56;;;;;;;35.90;17.37;;;;;;;-2.37;76.64;99325.84;5073390;28;20124;-63
2022/02/01 10:17:39;;;;;;;27.05;15.48;;;;;;;-2.38;76.14;99324.16;5076087;28;20129;-64
2022/02/01 10:20:05;;;;;;;33.47;18.02;;;;;;;-2.40;76.09;99310.44;5077020;28;20047;-62
2022/02/01 10:22:33;;;;;;;24.55;13.68;;;;;;;-2.29;75.92;99313.06;5076996;28;20510;-61
2022/02/01 10:25:03;;;;;;;26.33;14.95;;;;;;;-2.19;75.48;99314.00;5076395;28;20039;-65
2022/02/01 10:27:37;;;;;;;29.48;15.35;;;;;;;-2.12;75.45;99318.75;5076059;28;20127;-64
2022/02/01 10:30:15;;;;;;;26.67;14.45;;;;;;;-2.20;75.72;99312.34;5077017;28;20329;-61
2022/02/01 10:33:19;;;;;;;25.40;14.23;;;;;;;-2.15;75.79;99313.78;5080445;28;20131;-63
2022/02/01 10:35:58;;;;;;;28.23;15.38;;;;;;;-2.05;74.98;99325.16;5080456;28;20036;-60
2022/02/01 10:38:32;;;;;;;20.85;11.65;;;;;;;-2.19;74.51;99314.00;5080965;28;20059;-63
2022/02/01 10:40:59;;;;;;;25.45;14.75;;;;;;;-2.20;75.39;99319.34;5062866;28;20036;-61
2022/02/01 10:43:32;;;;;;;21.95;12.60;;;;;;;-2.26;74.96;99312.84;5062652;28;20064;-64
2022/02/01 10:46:16;;;;;;;23.05;12.50;;;;;;;-2.16;74.93;99309.50;5080242;28;20037;-62
2022/02/01 10:48:50;;;;;;;26.08;13.82;;;;;;;-2.11;75.15;99294.34;5077134;28;20147;-61
2022/02/01 10:51:23;;;;;;;24.30;12.85;;;;;;;-2.03;75.20;99302.38;5076482;28;20036;-63
2022/02/01 10:53:51;;;;;;;19.40;12.15;;;;;;;-2.13;74.27;99277.97;5077947;28;20041;-64
2022/02/01 10:56:20;;;;;;;23.15;13.43;;;;;;;-2.08;75.03;99296.69;5076957;28;20025;-61
2022/02/01 10:58:48;;;;;;;24.38;13.15;;;;;;;-2.06;75.25;99297.41;5078192;28;20048;-64
2022/02/01 11:01:15;;;;;;;18.52;12.02;;;;;;;-2.10;75.45;99296.81;5076214;28;20047;-65
2022/02/01 11:03:46;;;;;;;23.17;12.65;;;;;;;-2.03;75.21;99302.38;5079271;28;20051;-66
2022/02/01 11:06:13;;;;;;;22.38;12.30;;;;;;;-1.97;75.14;99296.72;5077201;28;20050;-62
2022/02/01 11:08:46;;;;;;;25.30;14.27;;;;;;;-1.96;74.75;99307.03;5079201;28;20052;-64
2022/02/01 11:11:37;;;;;;;26.05;13.18;;;;;;;-2.02;75.37;99298.88;5078362;28;20290;-61
2022/02/01 11:14:03;;;;;;;27.63;15.15;;;;;;;-2.12;75.87;99301.31;5078182;28;20090;-64
2022/02/01 11:16:29;;;;;;;21.20;12.70;;;;;;;-2.15;75.11;99304.19;5078451;28;20028;-62
2022/02/01 11:19:02;;;;;;;22.83;14.13;;;;;;;-2.16;74.84;99305.13;5079597;28;20086;-61
2022/02/01 11:21:28;;;;;;;20.92;11.80;;;;;;;-2.24;74.62;99292.69;5079658;28;20032;-65
2022/02/01 11:24:06;;;;;;;18.83;10.93;;;;;;;-2.20;75.56;99304.53;5079312;28;20127;-64
2022/02/01 11:26:40;;;;;;;21.85;12.07;;;;;;;-2.29;75.20;99289.59;5077886;28;20028;-62
2022/02/01 11:29:29;;;;;;;18.20;11.27;;;;;;;-2.15;74.45;99305.94;5076947;28;20087;-62
2022/02/01 11:31:58;;;;;;;20.02;12.02;;;;;;;-2.32;75.07;99289.81;5078818;28;20324;-63
2022/02/01 11:34:29;;;;;;;18.40;11.35;;;;;;;-2.43;74.83;99295.00;5062852;28;20551;-63
2022/02/01 11:36:58;;;;;;;21.95;11.70;;;;;;;-2.44;75.79;99301.19;5080417;28;20042;-63
2022/02/01 11:39:24;;;;;;;18.02;10.82;;;;;;;-2.39;75.41;99295.59;5081008;28;20127;-63
2022/02/01 11:41:53;;;;;;;22.25;12.07;;;;;;;-2.47;75.38;99298.81;5079013;28;20033;-67
2022/02/01 11:44:20;;;;;;;21.90;13.88;;;;;;;-2.52;75.92;99296.56;5078990;28;20541;-63
2022/02/01 11:47:07;;;;;;;19.05;12.10;;;;;;;-2.54;76.07;99292.41;5079516;28;20496;-64
2022/02/01 11:49:34;;;;;;;20.50;10.80;;;;;;;-2.48;76.20;99291.09;5079874;28;20058;-64
2022/02/01 11:52:09;;;;;;;26.10;13.10;;;;;;;-2.46;76.20;99284.81;5080256;28;20054;-64
2022/02/01 11:54:35;;;;;;;19.13;11.57;;;;;;;-2.46;76.14;99284.00;5080166;28;20036;-64
2022/02/01 11:57:16;;;;;;;20.45;11.90;;;;;;;-2.46;76.54;99279.59;5079544;28;20036;-64
2022/02/01 11:59:59;;;;;;;19.90;11.85;;;;;;;-2.41;76.26;99287.06;5078666;28;20095;-63
2022/02/01 12:02:37;;;;;;;19.00;11.13;;;;;;;-2.39;75.54;99275.59;5060500;28;20039;-63
2022/02/01 12:05:10;;;;;;;20.58;11.23;;;;;;;-2.42;75.47;99264.56;5079211;28;20047;-61
2022/02/01 12:07:53;;;;;;;20.70;11.68;;;;;;;-2.37;75.85;99281.50;5059180;28;20064;-64
2022/02/01 12:10:20;;;;;;;24.02;11.85;;;;;;;-2.33;75.86;99275.09;5060420;28;20049;-61
2022/02/01 12:12:47;;;;;;;20.77;11.73;;;;;;;-2.22;75.61;99276.91;5061308;28;20063;-64
2022/02/01 12:15:14;;;;;;;20.70;12.80;;;;;;;-2.30;74.90;99274.06;5060382;28;20351;-63
2022/02/01 12:18:06;;;;;;;18.42;11.32;;;;;;;-2.39;75.45;99259.94;5057059;28;20048;-64
2022/02/01 12:20:36;;;;;;;17.80;11.70;;;;;;;-2.27;75.07;99266.84;5057134;28;20083;-64
2022/02/01 12:23:24;;;;;;;19.48;11.68;;;;;;;-2.36;75.81;99264.91;5056848;28;20036;-66
2022/02/01 12:25:52;;;;;;;18.27;10.80;;;;;;;-2.25;75.12;99277.97;5057696;28;20045;-65
2022/02/01 12:28:21;;;;;;;22.17;12.02;;;;;;;-2.55;75.16;99226.41;5059184;28;20040;-66
2022/02/01 12:30:48;;;;;;;19.48;12.85;;;;;;;-2.30;75.44;99269.69;5059184;28;20033;-65
2022/02/01 12:33:19;;;;;;;19.92;11.98;;;;;;;-2.33;75.48;99258.63;5059142;28;20040;-68
2022/02/01 12:35:45;;;;;;;22.05;14.50;;;;;;;-2.83;75.36;99193.81;5059165;28;20029;-67
2022/02/01 12:38:19;;;;;;;20.55;12.50;;;;;;;-2.33;75.98;99280.31;5056468;28;20166;-69
2022/02/01 12:40:48;;;;;;;20.55;11.25;;;;;;;-2.39;76.14;99264.31;5055975;28;20082;-71
2022/02/01 12:43:19;;;;;;;17.48;10.80;;;;;;;-2.42;75.87;99281.03;5058636;28;20040;-62
2022/02/01 12:45:57;;;;;;;18.88;11.57;;;;;;;-2.53;75.45;99273.22;5057360;28;20040;-62